sensor_id;sensor_type;location;lat;lon;timestamp;P1;durP1;ratioP1;P2;durP2;ratioP2
20348;SDS011;10332;50.208;18.988;2023-04-03T00:01:21;8.05;;;5.45;;
20348;SDS011;10332;50.208;18.988;2023-04-03T00:03:49;6.95;;;5.05;;
20348;SDS011;10332;50.208;18.988;2023-04-03T00:06:18;6.25;;;4.35;;
20348;SDS011;10332;50.208;18.988;2023-04-03T00:08:46;10.55;;;5.57;;
20348;SDS011;10332;50.208;18.988;2023-04-03T00:11:13;8.98;;;4.60;;
20348;SDS011;10332;50.208;18.988;2023-04-03T00:13:42;5.80;;;4.30;;
20348;SDS011;10332;50.208;18.988;2023-04-03T00:16:10;6.10;;;4.38;;
20348;SDS011;10332;50.208;18.988;2023-04-03T00:18:39;5.70;;;3.92;;
20348;SDS011;10332;50.208;18.988;2023-04-03T00:21:07;5.38;;;3.55;;
20348;SDS011;10332;50.208;18.988;2023-04-03T00:23:36;5.57;;;4.00;;
20348;SDS011;10332;50.208;18.988;2023-04-03T00:26:04;4.55;;;3.28;;
20348;SDS011;10332;50.208;18.988;2023-04-03T00:28:32;5.20;;;3.25;;
20348;SDS011;10332;50.208;18.988;2023-04-03T00:30:59;3.78;;;3.08;;
20348;SDS011;10332;50.208;18.988;2023-04-03T00:33:27;6.50;;;3.83;;
20348;SDS011;10332;50.208;18.988;2023-04-03T00:35:54;4.82;;;3.55;;
20348;SDS011;10332;50.208;18.988;2023-04-03T00:38:22;4.70;;;3.40;;
20348;SDS011;10332;50.208;18.988;2023-04-03T00:40:49;5.07;;;3.95;;
20348;SDS011;10332;50.208;18.988;2023-04-03T00:43:19;6.53;;;4.88;;
20348;SDS011;10332;50.208;18.988;2023-04-03T00:45:58;6.60;;;4.82;;
20348;SDS011;10332;50.208;18.988;2023-04-03T00:50:59;8.15;;;4.80;;
20348;SDS011;10332;50.208;18.988;2023-04-03T00:53:33;6.30;;;4.70;;
20348;SDS011;10332;50.208;18.988;2023-04-03T00:56:08;6.32;;;5.00;;
20348;SDS011;10332;50.208;18.988;2023-04-03T00:58:51;7.18;;;5.05;;
20348;SDS011;10332;50.208;18.988;2023-04-03T01:01:28;10.38;;;7.25;;
20348;SDS011;10332;50.208;18.988;2023-04-03T01:04:00;9.75;;;7.80;;
20348;SDS011;10332;50.208;18.988;2023-04-03T01:06:30;11.60;;;8.65;;
20348;SDS011;10332;50.208;18.988;2023-04-03T01:09:04;10.27;;;8.50;;
20348;SDS011;10332;50.208;18.988;2023-04-03T01:11:32;12.45;;;9.10;;
20348;SDS011;10332;50.208;18.988;2023-04-03T01:14:00;11.07;;;8.95;;
20348;SDS011;10332;50.208;18.988;2023-04-03T01:16:29;13.10;;;9.80;;
20348;SDS011;10332;50.208;18.988;2023-04-03T01:18:59;12.80;;;9.77;;
20348;SDS011;10332;50.208;18.988;2023-04-03T01:24:33;12.50;;;9.57;;
20348;SDS011;10332;50.208;18.988;2023-04-03T01:27:06;12.30;;;9.20;;
20348;SDS011;10332;50.208;18.988;2023-04-03T01:29:37;13.32;;;10.02;;
20348;SDS011;10332;50.208;18.988;2023-04-03T01:32:05;13.23;;;10.45;;
20348;SDS011;10332;50.208;18.988;2023-04-03T01:34:33;14.27;;;10.55;;
20348;SDS011;10332;50.208;18.988;2023-04-03T01:37:00;12.32;;;9.07;;
20348;SDS011;10332;50.208;18.988;2023-04-03T01:39:28;11.10;;;8.63;;
20348;SDS011;10332;50.208;18.988;2023-04-03T01:41:55;11.93;;;9.35;;
20348;SDS011;10332;50.208;18.988;2023-04-03T01:44:23;12.60;;;9.43;;
20348;SDS011;10332;50.208;18.988;2023-04-03T01:46:50;13.60;;;9.35;;
20348;SDS011;10332;50.208;18.988;2023-04-03T01:49:18;12.20;;;9.48;;
20348;SDS011;10332;50.208;18.988;2023-04-03T01:51:46;14.27;;;10.02;;
20348;SDS011;10332;50.208;18.988;2023-04-03T01:54:13;15.98;;;11.05;;
20348;SDS011;10332;50.208;18.988;2023-04-03T01:56:41;15.13;;;11.05;;
20348;SDS011;10332;50.208;18.988;2023-04-03T01:59:08;14.23;;;10.70;;
20348;SDS011;10332;50.208;18.988;2023-04-03T02:01:36;13.02;;;9.98;;
20348;SDS011;10332;50.208;18.988;2023-04-03T02:04:03;12.88;;;9.65;;
20348;SDS011;10332;50.208;18.988;2023-04-03T02:06:31;12.75;;;9.10;;
20348;SDS011;10332;50.208;18.988;2023-04-03T02:08:58;12.90;;;8.80;;
20348;SDS011;10332;50.208;18.988;2023-04-03T02:11:26;12.30;;;7.97;;
20348;SDS011;10332;50.208;18.988;2023-04-03T02:13:54;13.32;;;7.43;;
20348;SDS011;10332;50.208;18.988;2023-04-03T02:16:21;11.18;;;7.10;;
20348;SDS011;10332;50.208;18.988;2023-04-03T02:18:49;9.27;;;6.45;;
20348;SDS011;10332;50.208;18.988;2023-04-03T02:21:17;10.15;;;6.53;;
20348;SDS011;10332;50.208;18.988;2023-04-03T02:23:44;8.75;;;6.30;;
20348;SDS011;10332;50.208;18.988;2023-04-03T02:26:13;10.65;;;6.30;;
20348;SDS011;10332;50.208;18.988;2023-04-03T02:28:42;7.55;;;5.80;;
20348;SDS011;10332;50.208;18.988;2023-04-03T02:31:10;10.85;;;6.28;;
20348;SDS011;10332;50.208;18.988;2023-04-03T02:33:38;9.85;;;6.13;;
20348;SDS011;10332;50.208;18.988;2023-04-03T02:36:06;8.15;;;5.55;;
20348;SDS011;10332;50.208;18.988;2023-04-03T02:38:34;11.35;;;6.43;;
20348;SDS011;10332;50.208;18.988;2023-04-03T02:41:03;9.52;;;6.47;;
20348;SDS011;10332;50.208;18.988;2023-04-03T02:43:33;8.32;;;5.85;;
20348;SDS011;10332;50.208;18.988;2023-04-03T02:46:01;9.40;;;6.25;;
20348;SDS011;10332;50.208;18.988;2023-04-03T02:48:29;10.75;;;6.47;;
20348;SDS011;10332;50.208;18.988;2023-04-03T02:50:56;9.50;;;6.28;;
20348;SDS011;10332;50.208;18.988;2023-04-03T02:53:24;9.82;;;6.85;;
20348;SDS011;10332;50.208;18.988;2023-04-03T02:55:51;11.35;;;7.88;;
20348;SDS011;10332;50.208;18.988;2023-04-03T02:58:19;14.60;;;9.23;;
20348;SDS011;10332;50.208;18.988;2023-04-03T03:00:46;13.95;;;10.20;;
20348;SDS011;10332;50.208;18.988;2023-04-03T03:03:14;12.82;;;8.95;;
20348;SDS011;10332;50.208;18.988;2023-04-03T03:05:41;13.65;;;9.98;;
20348;SDS011;10332;50.208;18.988;2023-04-03T03:08:09;13.15;;;8.10;;
20348;SDS011;10332;50.208;18.988;2023-04-03T03:10:36;13.70;;;7.13;;
20348;SDS011;10332;50.208;18.988;2023-04-03T03:13:04;11.00;;;7.30;;
20348;SDS011;10332;50.208;18.988;2023-04-03T03:15:32;10.75;;;7.18;;
20348;SDS011;10332;50.208;18.988;2023-04-03T03:18:00;10.10;;;6.63;;
20348;SDS011;10332;50.208;18.988;2023-04-03T03:20:27;9.95;;;7.15;;
20348;SDS011;10332;50.208;18.988;2023-04-03T03:22:55;10.50;;;7.40;;
20348;SDS011;10332;50.208;18.988;2023-04-03T03:25:22;12.85;;;7.43;;
20348;SDS011;10332;50.208;18.988;2023-04-03T03:27:50;8.88;;;6.45;;
20348;SDS011;10332;50.208;18.988;2023-04-03T03:30:17;13.10;;;7.30;;
20348;SDS011;10332;50.208;18.988;2023-04-03T03:32:45;11.63;;;7.78;;
20348;SDS011;10332;50.208;18.988;2023-04-03T03:35:12;8.80;;;6.72;;
20348;SDS011;10332;50.208;18.988;2023-04-03T03:37:40;11.90;;;6.88;;
20348;SDS011;10332;50.208;18.988;2023-04-03T03:40:07;9.23;;;6.68;;
20348;SDS011;10332;50.208;18.988;2023-04-03T03:42:37;10.05;;;6.13;;
20348;SDS011;10332;50.208;18.988;2023-04-03T03:45:04;9.60;;;6.25;;
20348;SDS011;10332;50.208;18.988;2023-04-03T03:47:33;15.18;;;6.95;;
20348;SDS011;10332;50.208;18.988;2023-04-03T03:50:01;15.93;;;6.38;;
20348;SDS011;10332;50.208;18.988;2023-04-03T03:52:29;8.88;;;5.88;;
20348;SDS011;10332;50.208;18.988;2023-04-03T03:54:56;10.93;;;5.80;;
20348;SDS011;10332;50.208;18.988;2023-04-03T03:57:24;10.30;;;5.45;;
20348;SDS011;10332;50.208;18.988;2023-04-03T03:59:53;10.35;;;5.40;;
20348;SDS011;10332;50.208;18.988;2023-04-03T04:02:21;9.25;;;5.47;;
20348;SDS011;10332;50.208;18.988;2023-04-03T04:04:49;9.15;;;6.10;;
20348;SDS011;10332;50.208;18.988;2023-04-03T04:07:17;10.82;;;5.70;;
20348;SDS011;10332;50.208;18.988;2023-04-03T04:09:44;9.32;;;5.43;;
20348;SDS011;10332;50.208;18.988;2023-04-03T04:12:12;10.00;;;5.25;;
20348;SDS011;10332;50.208;18.988;2023-04-03T04:14:39;9.15;;;5.28;;
20348;SDS011;10332;50.208;18.988;2023-04-03T04:17:07;11.32;;;4.80;;
20348;SDS011;10332;50.208;18.988;2023-04-03T04:19:34;9.80;;;4.82;;
20348;SDS011;10332;50.208;18.988;2023-04-03T04:22:02;11.77;;;6.05;;
20348;SDS011;10332;50.208;18.988;2023-04-03T04:24:29;7.10;;;4.57;;
20348;SDS011;10332;50.208;18.988;2023-04-03T04:26:57;9.55;;;5.00;;
20348;SDS011;10332;50.208;18.988;2023-04-03T04:29:25;11.07;;;5.65;;
20348;SDS011;10332;50.208;18.988;2023-04-03T04:31:52;8.38;;;4.70;;
20348;SDS011;10332;50.208;18.988;2023-04-03T04:34:20;10.05;;;5.53;;
20348;SDS011;10332;50.208;18.988;2023-04-03T04:36:47;10.35;;;5.95;;
20348;SDS011;10332;50.208;18.988;2023-04-03T04:39:15;10.65;;;6.57;;
20348;SDS011;10332;50.208;18.988;2023-04-03T04:41:42;9.52;;;5.75;;
20348;SDS011;10332;50.208;18.988;2023-04-03T04:44:09;10.07;;;5.55;;
20348;SDS011;10332;50.208;18.988;2023-04-03T04:46:37;8.88;;;5.22;;
20348;SDS011;10332;50.208;18.988;2023-04-03T04:49:05;11.95;;;5.93;;
20348;SDS011;10332;50.208;18.988;2023-04-03T04:51:32;12.20;;;6.38;;
20348;SDS011;10332;50.208;18.988;2023-04-03T04:54:10;14.10;;;6.60;;
20348;SDS011;10332;50.208;18.988;2023-04-03T04:56:37;13.68;;;6.15;;
20348;SDS011;10332;50.208;18.988;2023-04-03T04:59:05;8.30;;;5.35;;
20348;SDS011;10332;50.208;18.988;2023-04-03T05:01:32;10.18;;;5.32;;
20348;SDS011;10332;50.208;18.988;2023-04-03T05:04:00;9.95;;;5.13;;
20348;SDS011;10332;50.208;18.988;2023-04-03T05:06:27;9.73;;;5.60;;
20348;SDS011;10332;50.208;18.988;2023-04-03T05:08:56;10.70;;;5.75;;
20348;SDS011;10332;50.208;18.988;2023-04-03T05:11:24;8.82;;;5.00;;
20348;SDS011;10332;50.208;18.988;2023-04-03T05:13:52;11.05;;;5.07;;
20348;SDS011;10332;50.208;18.988;2023-04-03T05:16:19;11.02;;;4.57;;
20348;SDS011;10332;50.208;18.988;2023-04-03T05:18:47;12.23;;;5.18;;
20348;SDS011;10332;50.208;18.988;2023-04-03T05:21:14;10.50;;;6.03;;
20348;SDS011;10332;50.208;18.988;2023-04-03T05:23:42;10.88;;;5.78;;
20348;SDS011;10332;50.208;18.988;2023-04-03T05:26:09;10.82;;;5.30;;
20348;SDS011;10332;50.208;18.988;2023-04-03T05:28:37;13.70;;;6.03;;
20348;SDS011;10332;50.208;18.988;2023-04-03T05:31:04;8.43;;;5.38;;
20348;SDS011;10332;50.208;18.988;2023-04-03T05:33:32;13.00;;;5.50;;
20348;SDS011;10332;50.208;18.988;2023-04-03T05:36:04;10.88;;;6.07;;
20348;SDS011;10332;50.208;18.988;2023-04-03T05:38:32;11.23;;;5.60;;
20348;SDS011;10332;50.208;18.988;2023-04-03T05:41:00;12.80;;;6.30;;
20348;SDS011;10332;50.208;18.988;2023-04-03T05:43:27;9.48;;;5.72;;
20348;SDS011;10332;50.208;18.988;2023-04-03T05:45:55;11.50;;;4.75;;
20348;SDS011;10332;50.208;18.988;2023-04-03T05:48:23;11.80;;;5.85;;
20348;SDS011;10332;50.208;18.988;2023-04-03T05:50:50;9.02;;;5.07;;
20348;SDS011;10332;50.208;18.988;2023-04-03T05:53:23;12.10;;;5.32;;
20348;SDS011;10332;50.208;18.988;2023-04-03T05:55:56;13.95;;;6.80;;
20348;SDS011;10332;50.208;18.988;2023-04-03T05:58:24;12.52;;;6.13;;
20348;SDS011;10332;50.208;18.988;2023-04-03T06:00:51;13.90;;;6.28;;
20348;SDS011;10332;50.208;18.988;2023-04-03T06:03:19;13.35;;;6.68;;
20348;SDS011;10332;50.208;18.988;2023-04-03T06:05:47;12.05;;;6.38;;
20348;SDS011;10332;50.208;18.988;2023-04-03T06:08:14;12.80;;;5.28;;
20348;SDS011;10332;50.208;18.988;2023-04-03T06:10:42;12.05;;;5.95;;
20348;SDS011;10332;50.208;18.988;2023-04-03T06:13:09;8.57;;;5.15;;
20348;SDS011;10332;50.208;18.988;2023-04-03T06:15:37;8.98;;;5.03;;
20348;SDS011;10332;50.208;18.988;2023-04-03T06:18:06;9.05;;;5.38;;
20348;SDS011;10332;50.208;18.988;2023-04-03T06:20:34;13.57;;;5.43;;
20348;SDS011;10332;50.208;18.988;2023-04-03T06:23:02;8.95;;;5.20;;
20348;SDS011;10332;50.208;18.988;2023-04-03T06:25:30;14.20;;;6.60;;
20348;SDS011;10332;50.208;18.988;2023-04-03T06:27:58;11.93;;;5.82;;
20348;SDS011;10332;50.208;18.988;2023-04-03T06:30:25;15.48;;;7.95;;
20348;SDS011;10332;50.208;18.988;2023-04-03T06:32:53;15.27;;;7.38;;
20348;SDS011;10332;50.208;18.988;2023-04-03T06:35:22;13.15;;;5.53;;
20348;SDS011;10332;50.208;18.988;2023-04-03T06:37:50;14.85;;;6.65;;
20348;SDS011;10332;50.208;18.988;2023-04-03T06:40:19;15.23;;;7.30;;
20348;SDS011;10332;50.208;18.988;2023-04-03T06:42:50;14.95;;;6.97;;
20348;SDS011;10332;50.208;18.988;2023-04-03T06:45:18;16.65;;;7.15;;
20348;SDS011;10332;50.208;18.988;2023-04-03T06:47:45;17.90;;;8.07;;
20348;SDS011;10332;50.208;18.988;2023-04-03T06:50:13;11.38;;;5.78;;
20348;SDS011;10332;50.208;18.988;2023-04-03T06:52:41;11.35;;;5.80;;
20348;SDS011;10332;50.208;18.988;2023-04-03T06:55:09;11.60;;;5.95;;
20348;SDS011;10332;50.208;18.988;2023-04-03T06:57:37;9.55;;;5.60;;
20348;SDS011;10332;50.208;18.988;2023-04-03T07:00:05;14.40;;;6.72;;
20348;SDS011;10332;50.208;18.988;2023-04-03T07:02:33;17.42;;;8.57;;
20348;SDS011;10332;50.208;18.988;2023-04-03T07:05:01;12.98;;;6.95;;
20348;SDS011;10332;50.208;18.988;2023-04-03T07:07:29;10.30;;;5.68;;
20348;SDS011;10332;50.208;18.988;2023-04-03T07:09:57;13.00;;;5.82;;
20348;SDS011;10332;50.208;18.988;2023-04-03T07:12:24;12.00;;;6.15;;
20348;SDS011;10332;50.208;18.988;2023-04-03T07:14:53;13.55;;;6.03;;
20348;SDS011;10332;50.208;18.988;2023-04-03T07:17:20;19.60;;;8.52;;
20348;SDS011;10332;50.208;18.988;2023-04-03T07:19:48;16.48;;;8.68;;
20348;SDS011;10332;50.208;18.988;2023-04-03T07:22:15;11.52;;;6.38;;
20348;SDS011;10332;50.208;18.988;2023-04-03T07:25:02;15.18;;;5.85;;
20348;SDS011;10332;50.208;18.988;2023-04-03T07:27:30;13.32;;;5.72;;
20348;SDS011;10332;50.208;18.988;2023-04-03T07:29:58;10.55;;;5.35;;
20348;SDS011;10332;50.208;18.988;2023-04-03T07:32:26;12.85;;;5.78;;
20348;SDS011;10332;50.208;18.988;2023-04-03T07:34:53;9.50;;;5.28;;
20348;SDS011;10332;50.208;18.988;2023-04-03T07:37:21;10.60;;;4.93;;
20348;SDS011;10332;50.208;18.988;2023-04-03T07:39:49;6.78;;;3.92;;
20348;SDS011;10332;50.208;18.988;2023-04-03T07:42:17;10.13;;;5.28;;
20348;SDS011;10332;50.208;18.988;2023-04-03T07:44:44;9.55;;;4.90;;
20348;SDS011;10332;50.208;18.988;2023-04-03T07:47:12;11.00;;;5.35;;
20348;SDS011;10332;50.208;18.988;2023-04-03T07:49:43;10.32;;;4.50;;
20348;SDS011;10332;50.208;18.988;2023-04-03T07:52:10;9.50;;;4.75;;
20348;SDS011;10332;50.208;18.988;2023-04-03T07:54:38;9.93;;;5.53;;
20348;SDS011;10332;50.208;18.988;2023-04-03T07:57:06;9.10;;;4.75;;
20348;SDS011;10332;50.208;18.988;2023-04-03T07:59:34;9.25;;;4.80;;
20348;SDS011;10332;50.208;18.988;2023-04-03T08:02:01;7.53;;;4.30;;
20348;SDS011;10332;50.208;18.988;2023-04-03T08:04:31;9.75;;;4.00;;
20348;SDS011;10332;50.208;18.988;2023-04-03T08:06:59;11.63;;;5.13;;
20348;SDS011;10332;50.208;18.988;2023-04-03T08:09:26;9.15;;;4.97;;
20348;SDS011;10332;50.208;18.988;2023-04-03T08:11:54;9.10;;;4.95;;
20348;SDS011;10332;50.208;18.988;2023-04-03T08:14:22;10.75;;;4.85;;
20348;SDS011;10332;50.208;18.988;2023-04-03T08:16:49;9.38;;;4.68;;
20348;SDS011;10332;50.208;18.988;2023-04-03T08:19:17;9.93;;;4.00;;
20348;SDS011;10332;50.208;18.988;2023-04-03T08:21:52;11.18;;;4.85;;
20348;SDS011;10332;50.208;18.988;2023-04-03T08:24:21;8.45;;;4.15;;
20348;SDS011;10332;50.208;18.988;2023-04-03T08:26:48;9.40;;;4.68;;
20348;SDS011;10332;50.208;18.988;2023-04-03T08:29:16;8.75;;;3.83;;
20348;SDS011;10332;50.208;18.988;2023-04-03T08:31:44;8.02;;;3.72;;
20348;SDS011;10332;50.208;18.988;2023-04-03T08:34:13;7.53;;;3.60;;
20348;SDS011;10332;50.208;18.988;2023-04-03T08:36:41;6.57;;;3.35;;
20348;SDS011;10332;50.208;18.988;2023-04-03T08:39:09;7.05;;;3.40;;
20348;SDS011;10332;50.208;18.988;2023-04-03T08:50:32;9.48;;;3.55;;
20348;SDS011;10332;50.208;18.988;2023-04-03T08:53:10;7.47;;;3.53;;
20348;SDS011;10332;50.208;18.988;2023-04-03T08:55:45;5.18;;;2.80;;
20348;SDS011;10332;50.208;18.988;2023-04-03T08:58:16;6.65;;;3.38;;
20348;SDS011;10332;50.208;18.988;2023-04-03T09:01:01;4.60;;;2.78;;
20348;SDS011;10332;50.208;18.988;2023-04-03T09:04:05;6.07;;;3.03;;
20348;SDS011;10332;50.208;18.988;2023-04-03T09:06:44;4.85;;;2.50;;
20348;SDS011;10332;50.208;18.988;2023-04-03T09:24:07;5.13;;;2.63;;
20348;SDS011;10332;50.208;18.988;2023-04-03T09:26:23;5.43;;;2.80;;
20348;SDS011;10332;50.208;18.988;2023-04-03T09:29:06;7.40;;;2.85;;
20348;SDS011;10332;50.208;18.988;2023-04-03T09:31:39;5.20;;;2.63;;
20348;SDS011;10332;50.208;18.988;2023-04-03T09:34:20;4.70;;;2.85;;
20348;SDS011;10332;50.208;18.988;2023-04-03T09:37:03;5.28;;;2.80;;
20348;SDS011;10332;50.208;18.988;2023-04-03T09:39:51;4.53;;;2.58;;
20348;SDS011;10332;50.208;18.988;2023-04-03T09:42:21;4.55;;;2.20;;
20348;SDS011;10332;50.208;18.988;2023-04-03T09:44:56;4.68;;;2.05;;
20348;SDS011;10332;50.208;18.988;2023-04-03T09:47:26;4.20;;;1.95;;
20348;SDS011;10332;50.208;18.988;2023-04-03T09:52:44;5.40;;;2.45;;
20348;SDS011;10332;50.208;18.988;2023-04-03T09:55:16;6.28;;;2.00;;
20348;SDS011;10332;50.208;18.988;2023-04-03T09:57:57;5.90;;;2.38;;
20348;SDS011;10332;50.208;18.988;2023-04-03T10:00:31;5.35;;;2.42;;
20348;SDS011;10332;50.208;18.988;2023-04-03T10:03:04;6.25;;;2.50;;
20348;SDS011;10332;50.208;18.988;2023-04-03T10:05:50;6.68;;;3.03;;
20348;SDS011;10332;50.208;18.988;2023-04-03T10:08:22;5.20;;;2.92;;
20348;SDS011;10332;50.208;18.988;2023-04-03T10:13:50;4.68;;;2.80;;
20348;SDS011;10332;50.208;18.988;2023-04-03T10:16:28;3.47;;;2.25;;
20348;SDS011;10332;50.208;18.988;2023-04-03T10:33:39;3.70;;;2.10;;
20348;SDS011;10332;50.208;18.988;2023-04-03T10:39:39;4.32;;;2.30;;
20348;SDS011;10332;50.208;18.988;2023-04-03T10:45:27;5.97;;;2.85;;
20348;SDS011;10332;50.208;18.988;2023-04-03T10:54:11;4.10;;;2.90;;
20348;SDS011;10332;50.208;18.988;2023-04-03T10:56:54;3.13;;;2.33;;
20348;SDS011;10332;50.208;18.988;2023-04-03T11:02:30;4.25;;;2.63;;
20348;SDS011;10332;50.208;18.988;2023-04-03T11:05:05;3.63;;;2.60;;
20348;SDS011;10332;50.208;18.988;2023-04-03T11:07:42;3.58;;;2.53;;
20348;SDS011;10332;50.208;18.988;2023-04-03T11:13:01;3.10;;;2.50;;
20348;SDS011;10332;50.208;18.988;2023-04-03T11:15:39;5.35;;;2.75;;
20348;SDS011;10332;50.208;18.988;2023-04-03T11:18:13;3.22;;;2.20;;
20348;SDS011;10332;50.208;18.988;2023-04-03T11:20:59;4.75;;;2.17;;
20348;SDS011;10332;50.208;18.988;2023-04-03T11:23:36;3.85;;;2.03;;
20348;SDS011;10332;50.208;18.988;2023-04-03T11:26:16;3.83;;;2.28;;
20348;SDS011;10332;50.208;18.988;2023-04-03T11:28:52;4.63;;;3.00;;
20348;SDS011;10332;50.208;18.988;2023-04-03T11:31:43;5.20;;;3.42;;
20348;SDS011;10332;50.208;18.988;2023-04-03T11:34:54;4.05;;;2.70;;
20348;SDS011;10332;50.208;18.988;2023-04-03T11:37:34;4.57;;;3.22;;
20348;SDS011;10332;50.208;18.988;2023-04-03T11:43:07;2.67;;;2.30;;
20348;SDS011;10332;50.208;18.988;2023-04-03T11:46:02;3.47;;;2.30;;
20348;SDS011;10332;50.208;18.988;2023-04-03T11:53:40;10.52;;;4.20;;
20348;SDS011;10332;50.208;18.988;2023-04-03T12:04:20;4.28;;;2.70;;
20348;SDS011;10332;50.208;18.988;2023-04-03T12:06:58;4.63;;;3.42;;
20348;SDS011;10332;50.208;18.988;2023-04-03T12:44:15;4.65;;;2.70;;
20348;SDS011;10332;50.208;18.988;2023-04-03T12:47:24;6.85;;;5.30;;
20348;SDS011;10332;50.208;18.988;2023-04-03T12:50:03;4.93;;;3.20;;
20348;SDS011;10332;50.208;18.988;2023-04-03T12:53:06;4.03;;;2.80;;
20348;SDS011;10332;50.208;18.988;2023-04-03T12:55:41;4.78;;;3.67;;
20348;SDS011;10332;50.208;18.988;2023-04-03T12:58:13;3.40;;;2.80;;
20348;SDS011;10332;50.208;18.988;2023-04-03T13:01:09;3.38;;;2.40;;
20348;SDS011;10332;50.208;18.988;2023-04-03T13:03:45;3.97;;;2.42;;
20348;SDS011;10332;50.208;18.988;2023-04-03T13:06:22;3.85;;;2.50;;
20348;SDS011;10332;50.208;18.988;2023-04-03T13:08:55;4.20;;;2.70;;
20348;SDS011;10332;50.208;18.988;2023-04-03T13:11:33;3.75;;;2.10;;
20348;SDS011;10332;50.208;18.988;2023-04-03T13:14:17;2.95;;;2.00;;
20348;SDS011;10332;50.208;18.988;2023-04-03T13:16:54;3.63;;;2.55;;
20348;SDS011;10332;50.208;18.988;2023-04-03T13:19:25;4.00;;;2.00;;
20348;SDS011;10332;50.208;18.988;2023-04-03T13:22:06;2.58;;;2.22;;
20348;SDS011;10332;50.208;18.988;2023-04-03T13:25:07;3.13;;;2.28;;
20348;SDS011;10332;50.208;18.988;2023-04-03T13:27:39;2.70;;;2.50;;
20348;SDS011;10332;50.208;18.988;2023-04-03T13:30:21;4.70;;;2.35;;
20348;SDS011;10332;50.208;18.988;2023-04-03T13:33:06;2.20;;;1.90;;
20348;SDS011;10332;50.208;18.988;2023-04-03T13:35:56;2.78;;;2.05;;
20348;SDS011;10332;50.208;18.988;2023-04-03T13:38:31;3.45;;;2.25;;
20348;SDS011;10332;50.208;18.988;2023-04-03T13:41:05;2.95;;;2.00;;
20348;SDS011;10332;50.208;18.988;2023-04-03T13:44:22;2.17;;;1.88;;
20348;SDS011;10332;50.208;18.988;2023-04-03T13:46:53;2.75;;;1.77;;
20348;SDS011;10332;50.208;18.988;2023-04-03T13:52:24;2.83;;;2.28;;
20348;SDS011;10332;50.208;18.988;2023-04-03T13:55:14;3.38;;;2.60;;
20348;SDS011;10332;50.208;18.988;2023-04-03T13:57:59;4.35;;;3.17;;
20348;SDS011;10332;50.208;18.988;2023-04-03T14:00:40;6.60;;;4.50;;
20348;SDS011;10332;50.208;18.988;2023-04-03T14:03:26;6.25;;;3.85;;
20348;SDS011;10332;50.208;18.988;2023-04-03T14:06:04;5.07;;;3.42;;
20348;SDS011;10332;50.208;18.988;2023-04-03T14:08:37;4.85;;;2.92;;
20348;SDS011;10332;50.208;18.988;2023-04-03T14:11:11;7.63;;;3.45;;
20348;SDS011;10332;50.208;18.988;2023-04-03T14:13:43;4.93;;;2.63;;
20348;SDS011;10332;50.208;18.988;2023-04-03T14:16:20;6.97;;;3.38;;
20348;SDS011;10332;50.208;18.988;2023-04-03T14:18:52;9.63;;;4.43;;
20348;SDS011;10332;50.208;18.988;2023-04-03T14:21:20;8.70;;;4.03;;
20348;SDS011;10332;50.208;18.988;2023-04-03T14:23:48;11.20;;;5.32;;
20348;SDS011;10332;50.208;18.988;2023-04-03T14:26:18;8.48;;;4.40;;
20348;SDS011;10332;50.208;18.988;2023-04-03T14:28:51;6.30;;;3.10;;
20348;SDS011;10332;50.208;18.988;2023-04-03T14:31:22;4.78;;;2.80;;
20348;SDS011;10332;50.208;18.988;2023-04-03T14:33:50;4.97;;;2.78;;
20348;SDS011;10332;50.208;18.988;2023-04-03T14:36:19;3.40;;;2.33;;
20348;SDS011;10332;50.208;18.988;2023-04-03T14:38:54;3.50;;;2.30;;
20348;SDS011;10332;50.208;18.988;2023-04-03T14:41:23;5.22;;;2.60;;
20348;SDS011;10332;50.208;18.988;2023-04-03T14:43:53;4.18;;;2.30;;
20348;SDS011;10332;50.208;18.988;2023-04-03T14:46:22;4.13;;;2.08;;
20348;SDS011;10332;50.208;18.988;2023-04-03T14:49:21;6.20;;;3.28;;
20348;SDS011;10332;50.208;18.988;2023-04-03T14:51:55;4.78;;;3.10;;
20348;SDS011;10332;50.208;18.988;2023-04-03T14:54:24;3.63;;;2.58;;
20348;SDS011;10332;50.208;18.988;2023-04-03T14:56:55;4.53;;;2.55;;
20348;SDS011;10332;50.208;18.988;2023-04-03T14:59:27;6.43;;;3.38;;
20348;SDS011;10332;50.208;18.988;2023-04-03T15:01:58;5.32;;;2.67;;
20348;SDS011;10332;50.208;18.988;2023-04-03T15:04:26;5.82;;;2.90;;
20348;SDS011;10332;50.208;18.988;2023-04-03T15:06:54;4.82;;;2.58;;
20348;SDS011;10332;50.208;18.988;2023-04-03T15:09:23;6.47;;;2.90;;
20348;SDS011;10332;50.208;18.988;2023-04-03T15:11:54;3.67;;;2.35;;
20348;SDS011;10332;50.208;18.988;2023-04-03T15:14:22;5.82;;;3.20;;
20348;SDS011;10332;50.208;18.988;2023-04-03T15:17:10;5.72;;;2.70;;
20348;SDS011;10332;50.208;18.988;2023-04-03T15:19:49;5.15;;;2.55;;
20348;SDS011;10332;50.208;18.988;2023-04-03T15:22:17;5.22;;;2.40;;
20348;SDS011;10332;50.208;18.988;2023-04-03T15:24:46;3.88;;;2.40;;
20348;SDS011;10332;50.208;18.988;2023-04-03T15:27:14;3.80;;;2.28;;
20348;SDS011;10332;50.208;18.988;2023-04-03T15:29:42;4.97;;;2.80;;
20348;SDS011;10332;50.208;18.988;2023-04-03T15:32:11;5.70;;;2.88;;
20348;SDS011;10332;50.208;18.988;2023-04-03T15:34:39;4.85;;;2.80;;
20348;SDS011;10332;50.208;18.988;2023-04-03T15:37:07;5.25;;;2.97;;
20348;SDS011;10332;50.208;18.988;2023-04-03T15:39:35;6.93;;;3.78;;
20348;SDS011;10332;50.208;18.988;2023-04-03T15:42:02;9.55;;;4.43;;
20348;SDS011;10332;50.208;18.988;2023-04-03T15:44:33;7.55;;;3.50;;
20348;SDS011;10332;50.208;18.988;2023-04-03T15:47:01;7.32;;;4.07;;
20348;SDS011;10332;50.208;18.988;2023-04-03T15:49:29;8.38;;;4.65;;
20348;SDS011;10332;50.208;18.988;2023-04-03T15:52:00;8.20;;;4.00;;
20348;SDS011;10332;50.208;18.988;2023-04-03T15:54:28;6.07;;;3.22;;
20348;SDS011;10332;50.208;18.988;2023-04-03T15:56:56;16.00;;;5.45;;
20348;SDS011;10332;50.208;18.988;2023-04-03T15:59:24;13.80;;;5.57;;
20348;SDS011;10332;50.208;18.988;2023-04-03T16:01:51;16.20;;;6.47;;
20348;SDS011;10332;50.208;18.988;2023-04-03T16:04:20;15.27;;;5.53;;
20348;SDS011;10332;50.208;18.988;2023-04-03T16:06:48;10.30;;;4.50;;
20348;SDS011;10332;50.208;18.988;2023-04-03T16:09:17;13.05;;;5.88;;
20348;SDS011;10332;50.208;18.988;2023-04-03T16:11:44;8.93;;;3.88;;
20348;SDS011;10332;50.208;18.988;2023-04-03T16:14:12;5.43;;;3.00;;
20348;SDS011;10332;50.208;18.988;2023-04-03T16:16:39;6.60;;;3.97;;
20348;SDS011;10332;50.208;18.988;2023-04-03T16:19:07;6.72;;;3.15;;
20348;SDS011;10332;50.208;18.988;2023-04-03T16:21:36;5.05;;;2.80;;
20348;SDS011;10332;50.208;18.988;2023-04-03T16:24:04;5.70;;;2.55;;
20348;SDS011;10332;50.208;18.988;2023-04-03T16:26:32;3.28;;;2.25;;
20348;SDS011;10332;50.208;18.988;2023-04-03T16:29:00;5.18;;;2.70;;
20348;SDS011;10332;50.208;18.988;2023-04-03T16:31:27;6.00;;;3.17;;
20348;SDS011;10332;50.208;18.988;2023-04-03T16:33:55;6.82;;;3.08;;
20348;SDS011;10332;50.208;18.988;2023-04-03T16:36:23;5.15;;;2.90;;
20348;SDS011;10332;50.208;18.988;2023-04-03T16:38:52;5.13;;;2.92;;
20348;SDS011;10332;50.208;18.988;2023-04-03T16:41:20;7.05;;;3.83;;
20348;SDS011;10332;50.208;18.988;2023-04-03T16:43:47;12.60;;;7.50;;
20348;SDS011;10332;50.208;18.988;2023-04-03T16:46:16;6.47;;;3.10;;
20348;SDS011;10332;50.208;18.988;2023-04-03T16:48:44;9.73;;;4.22;;
20348;SDS011;10332;50.208;18.988;2023-04-03T16:51:12;9.00;;;3.80;;
20348;SDS011;10332;50.208;18.988;2023-04-03T16:53:40;10.98;;;5.15;;